sensor_id;sensor_type;location;lat;lon;timestamp;temperature;humidity
68026;SHT31;54819;48.030;14.710;2023-08-21T00:01:37;22.89;67.17
68026;SHT31;54819;48.030;14.710;2023-08-21T00:04:04;22.88;67.32
68026;SHT31;54819;48.030;14.710;2023-08-21T00:06:31;22.87;67.38
68026;SHT31;54819;48.030;14.710;2023-08-21T00:08:58;22.86;67.44
68026;SHT31;54819;48.030;14.710;2023-08-21T00:11:24;22.81;67.49
68026;SHT31;54819;48.030;14.710;2023-08-21T00:13:51;22.77;67.52
68026;SHT31;54819;48.030;14.710;2023-08-21T00:16:17;22.72;67.74
68026;SHT31;54819;48.030;14.710;2023-08-21T00:18:44;22.68;67.80
68026;SHT31;54819;48.030;14.710;2023-08-21T00:21:11;22.65;67.77
68026;SHT31;54819;48.030;14.710;2023-08-21T00:23:38;22.62;67.65
68026;SHT31;54819;48.030;14.710;2023-08-21T00:26:05;22.61;67.72
68026;SHT31;54819;48.030;14.710;2023-08-21T00:28:31;22.59;67.76
68026;SHT31;54819;48.030;14.710;2023-08-21T00:31:03;22.58;67.76
68026;SHT31;54819;48.030;14.710;2023-08-21T00:33:31;22.56;67.79
68026;SHT31;54819;48.030;14.710;2023-08-21T00:35:58;22.54;68.22
68026;SHT31;54819;48.030;14.710;2023-08-21T00:38:25;22.52;68.11
68026;SHT31;54819;48.030;14.710;2023-08-21T00:40:53;22.47;68.16
68026;SHT31;54819;48.030;14.710;2023-08-21T00:43:19;22.43;67.91
68026;SHT31;54819;48.030;14.710;2023-08-21T00:45:48;22.41;68.14
68026;SHT31;54819;48.030;14.710;2023-08-21T00:48:17;22.42;67.96
68026;SHT31;54819;48.030;14.710;2023-08-21T00:50:44;22.42;68.09
68026;SHT31;54819;48.030;14.710;2023-08-21T00:53:11;22.38;68.18
68026;SHT31;54819;48.030;14.710;2023-08-21T00:55:39;22.38;68.44
68026;SHT31;54819;48.030;14.710;2023-08-21T00:58:06;22.33;68.62
68026;SHT31;54819;48.030;14.710;2023-08-21T01:00:36;22.31;68.48
68026;SHT31;54819;48.030;14.710;2023-08-21T01:03:05;22.30;68.45
68026;SHT31;54819;48.030;14.710;2023-08-21T01:05:32;22.33;68.00
68026;SHT31;54819;48.030;14.710;2023-08-21T01:08:01;22.33;68.05
68026;SHT31;54819;48.030;14.710;2023-08-21T01:10:39;22.34;68.05
68026;SHT31;54819;48.030;14.710;2023-08-21T01:13:34;22.40;67.75
68026;SHT31;54819;48.030;14.710;2023-08-21T01:16:09;22.40;67.86
68026;SHT31;54819;48.030;14.710;2023-08-21T01:18:37;22.40;67.87
68026;SHT31;54819;48.030;14.710;2023-08-21T01:21:06;22.39;67.85
68026;SHT31;54819;48.030;14.710;2023-08-21T01:23:33;22.36;68.16
68026;SHT31;54819;48.030;14.710;2023-08-21T01:26:01;22.32;68.55
68026;SHT31;54819;48.030;14.710;2023-08-21T01:28:30;22.26;68.96
68026;SHT31;54819;48.030;14.710;2023-08-21T01:31:04;22.22;69.18
68026;SHT31;54819;48.030;14.710;2023-08-21T01:33:33;22.16;69.46
68026;SHT31;54819;48.030;14.710;2023-08-21T01:36:02;22.11;69.65
68026;SHT31;54819;48.030;14.710;2023-08-21T01:38:33;22.08;69.69
68026;SHT31;54819;48.030;14.710;2023-08-21T01:41:01;22.07;69.28
68026;SHT31;54819;48.030;14.710;2023-08-21T01:43:29;22.05;69.31
68026;SHT31;54819;48.030;14.710;2023-08-21T01:45:55;22.00;69.56
68026;SHT31;54819;48.030;14.710;2023-08-21T01:48:23;21.96;69.29
68026;SHT31;54819;48.030;14.710;2023-08-21T01:50:50;21.92;69.40
68026;SHT31;54819;48.030;14.710;2023-08-21T01:53:16;21.88;69.76
68026;SHT31;54819;48.030;14.710;2023-08-21T01:55:43;21.81;69.95
68026;SHT31;54819;48.030;14.710;2023-08-21T01:58:10;21.77;70.00
68026;SHT31;54819;48.030;14.710;2023-08-21T02:00:37;21.70;69.76
68026;SHT31;54819;48.030;14.710;2023-08-21T02:03:04;21.66;69.62
68026;SHT31;54819;48.030;14.710;2023-08-21T02:05:36;21.61;69.66
68026;SHT31;54819;48.030;14.710;2023-08-21T02:08:04;21.58;69.77
68026;SHT31;54819;48.030;14.710;2023-08-21T02:10:34;21.54;70.11
68026;SHT31;54819;48.030;14.710;2023-08-21T02:13:00;21.48;70.18
68026;SHT31;54819;48.030;14.710;2023-08-21T02:15:27;21.43;70.46
68026;SHT31;54819;48.030;14.710;2023-08-21T02:17:54;21.37;70.81
68026;SHT31;54819;48.030;14.710;2023-08-21T02:20:21;21.29;71.22
68026;SHT31;54819;48.030;14.710;2023-08-21T02:22:47;21.11;72.70
68026;SHT31;54819;48.030;14.710;2023-08-21T02:25:14;20.97;73.45
68026;SHT31;54819;48.030;14.710;2023-08-21T02:27:41;20.89;73.59
68026;SHT31;54819;48.030;14.710;2023-08-21T02:30:07;20.80;74.16
68026;SHT31;54819;48.030;14.710;2023-08-21T02:32:34;20.70;74.38
68026;SHT31;54819;48.030;14.710;2023-08-21T02:35:02;20.62;74.86
68026;SHT31;54819;48.030;14.710;2023-08-21T02:37:29;20.56;74.74
68026;SHT31;54819;48.030;14.710;2023-08-21T02:39:55;20.51;74.86
68026;SHT31;54819;48.030;14.710;2023-08-21T02:42:22;20.47;74.84
68026;SHT31;54819;48.030;14.710;2023-08-21T02:44:48;20.42;74.79
68026;SHT31;54819;48.030;14.710;2023-08-21T02:47:15;20.38;75.08
68026;SHT31;54819;48.030;14.710;2023-08-21T02:49:41;20.37;74.90
68026;SHT31;54819;48.030;14.710;2023-08-21T02:52:08;20.35;74.75
68026;SHT31;54819;48.030;14.710;2023-08-21T02:54:35;20.35;74.64
68026;SHT31;54819;48.030;14.710;2023-08-21T02:57:01;20.36;74.33
68026;SHT31;54819;48.030;14.710;2023-08-21T02:59:28;20.38;74.16
68026;SHT31;54819;48.030;14.710;2023-08-21T03:01:54;20.39;74.04
68026;SHT31;54819;48.030;14.710;2023-08-21T03:04:21;20.40;73.83
68026;SHT31;54819;48.030;14.710;2023-08-21T03:06:49;20.42;73.81
68026;SHT31;54819;48.030;14.710;2023-08-21T03:09:16;20.46;73.68
68026;SHT31;54819;48.030;14.710;2023-08-21T03:11:43;20.50;73.44
68026;SHT31;54819;48.030;14.710;2023-08-21T03:14:09;20.52;73.34
68026;SHT31;54819;48.030;14.710;2023-08-21T03:16:36;20.57;73.13
68026;SHT31;54819;48.030;14.710;2023-08-21T03:19:02;20.60;72.90
68026;SHT31;54819;48.030;14.710;2023-08-21T03:21:29;20.65;72.60
68026;SHT31;54819;48.030;14.710;2023-08-21T03:23:57;20.69;72.47
68026;SHT31;54819;48.030;14.710;2023-08-21T03:26:30;20.74;72.37
68026;SHT31;54819;48.030;14.710;2023-08-21T03:28:56;20.85;71.58
68026;SHT31;54819;48.030;14.710;2023-08-21T03:31:23;20.97;71.30
68026;SHT31;54819;48.030;14.710;2023-08-21T03:33:50;21.01;71.04
68026;SHT31;54819;48.030;14.710;2023-08-21T03:36:18;21.03;70.92
68026;SHT31;54819;48.030;14.710;2023-08-21T03:38:46;21.00;70.98
68026;SHT31;54819;48.030;14.710;2023-08-21T03:41:13;20.99;70.86
68026;SHT31;54819;48.030;14.710;2023-08-21T03:43:39;20.99;70.97
68026;SHT31;54819;48.030;14.710;2023-08-21T03:46:06;20.99;70.94
68026;SHT31;54819;48.030;14.710;2023-08-21T03:48:33;21.01;71.20
68026;SHT31;54819;48.030;14.710;2023-08-21T03:51:00;20.95;72.20
68026;SHT31;54819;48.030;14.710;2023-08-21T03:53:27;20.82;72.39
68026;SHT31;54819;48.030;14.710;2023-08-21T03:55:54;20.62;72.95
68026;SHT31;54819;48.030;14.710;2023-08-21T03:58:20;20.48;73.44
68026;SHT31;54819;48.030;14.710;2023-08-21T04:00:47;20.34;73.74
68026;SHT31;54819;48.030;14.710;2023-08-21T04:03:14;20.18;74.50
68026;SHT31;54819;48.030;14.710;2023-08-21T04:05:40;19.91;75.46
68026;SHT31;54819;48.030;14.710;2023-08-21T04:08:07;19.75;76.30
68026;SHT31;54819;48.030;14.710;2023-08-21T04:10:33;19.62;76.91
68026;SHT31;54819;48.030;14.710;2023-08-21T04:13:00;19.58;77.42
68026;SHT31;54819;48.030;14.710;2023-08-21T04:15:29;19.55;77.42
68026;SHT31;54819;48.030;14.710;2023-08-21T04:17:56;19.55;77.56
68026;SHT31;54819;48.030;14.710;2023-08-21T04:20:23;19.60;77.60
68026;SHT31;54819;48.030;14.710;2023-08-21T04:22:50;19.66;77.57
68026;SHT31;54819;48.030;14.710;2023-08-21T04:25:17;19.77;77.63
68026;SHT31;54819;48.030;14.710;2023-08-21T04:27:44;19.91;77.51
68026;SHT31;54819;48.030;14.710;2023-08-21T04:30:11;20.07;77.37
68026;SHT31;54819;48.030;14.710;2023-08-21T04:32:38;20.28;77.07
68026;SHT31;54819;48.030;14.710;2023-08-21T04:35:06;20.52;76.50
68026;SHT31;54819;48.030;14.710;2023-08-21T04:37:37;20.76;76.34
68026;SHT31;54819;48.030;14.710;2023-08-21T04:40:04;21.04;75.86
68026;SHT31;54819;48.030;14.710;2023-08-21T04:42:31;21.36;75.26
68026;SHT31;54819;48.030;14.710;2023-08-21T04:44:58;21.67;74.77
68026;SHT31;54819;48.030;14.710;2023-08-21T04:47:26;22.01;74.12
68026;SHT31;54819;48.030;14.710;2023-08-21T04:49:56;22.34;73.44
68026;SHT31;54819;48.030;14.710;2023-08-21T04:52:23;22.57;72.75
68026;SHT31;54819;48.030;14.710;2023-08-21T04:54:52;22.88;72.33
68026;SHT31;54819;48.030;14.710;2023-08-21T04:57:19;23.22;71.59
68026;SHT31;54819;48.030;14.710;2023-08-21T04:59:47;23.52;70.91
68026;SHT31;54819;48.030;14.710;2023-08-21T05:02:14;23.72;70.24
68026;SHT31;54819;48.030;14.710;2023-08-21T05:04:41;23.73;69.81
68026;SHT31;54819;48.030;14.710;2023-08-21T05:07:07;23.72;69.57
68026;SHT31;54819;48.030;14.710;2023-08-21T05:09:34;23.63;69.42
68026;SHT31;54819;48.030;14.710;2023-08-21T05:12:01;23.50;69.38
68026;SHT31;54819;48.030;14.710;2023-08-21T05:14:28;23.29;69.71
68026;SHT31;54819;48.030;14.710;2023-08-21T05:16:55;23.10;69.99
68026;SHT31;54819;48.030;14.710;2023-08-21T05:19:21;22.88;70.25
68026;SHT31;54819;48.030;14.710;2023-08-21T05:21:48;22.68;70.64
68026;SHT31;54819;48.030;14.710;2023-08-21T05:24:15;22.55;70.98
68026;SHT31;54819;48.030;14.710;2023-08-21T05:26:46;22.40;71.84
68026;SHT31;54819;48.030;14.710;2023-08-21T05:29:12;22.16;72.24
68026;SHT31;54819;48.030;14.710;2023-08-21T05:31:39;21.94;72.95
68026;SHT31;54819;48.030;14.710;2023-08-21T05:34:06;21.80;73.07
68026;SHT31;54819;48.030;14.710;2023-08-21T05:36:33;21.80;73.10
68026;SHT31;54819;48.030;14.710;2023-08-21T05:39:01;21.80;73.34
68026;SHT31;54819;48.030;14.710;2023-08-21T05:41:33;21.78;73.60
68026;SHT31;54819;48.030;14.710;2023-08-21T05:44:00;21.80;73.76
68026;SHT31;54819;48.030;14.710;2023-08-21T05:46:27;21.82;74.01
68026;SHT31;54819;48.030;14.710;2023-08-21T05:48:54;21.80;74.81
68026;SHT31;54819;48.030;14.710;2023-08-21T05:51:20;21.80;75.37
68026;SHT31;54819;48.030;14.710;2023-08-21T05:53:48;21.81;74.88
68026;SHT31;54819;48.030;14.710;2023-08-21T05:56:15;21.80;75.78
68026;SHT31;54819;48.030;14.710;2023-08-21T05:58:43;21.85;75.15
68026;SHT31;54819;48.030;14.710;2023-08-21T06:01:10;21.86;75.16
68026;SHT31;54819;48.030;14.710;2023-08-21T06:03:37;21.86;75.17
68026;SHT31;54819;48.030;14.710;2023-08-21T06:06:10;21.93;75.07
68026;SHT31;54819;48.030;14.710;2023-08-21T06:08:37;22.00;75.28
68026;SHT31;54819;48.030;14.710;2023-08-21T06:11:04;22.06;74.82
68026;SHT31;54819;48.030;14.710;2023-08-21T06:13:31;22.07;74.87
68026;SHT31;54819;48.030;14.710;2023-08-21T06:15:58;22.11;74.69
68026;SHT31;54819;48.030;14.710;2023-08-21T06:18:25;22.21;74.63
68026;SHT31;54819;48.030;14.710;2023-08-21T06:20:52;22.25;74.25
68026;SHT31;54819;48.030;14.710;2023-08-21T06:23:21;22.30;73.80
68026;SHT31;54819;48.030;14.710;2023-08-21T06:25:48;22.36;73.30
68026;SHT31;54819;48.030;14.710;2023-08-21T06:28:17;22.45;73.08
68026;SHT31;54819;48.030;14.710;2023-08-21T06:30:43;22.52;73.66
68026;SHT31;54819;48.030;14.710;2023-08-21T06:33:10;22.60;73.74
68026;SHT31;54819;48.030;14.710;2023-08-21T06:35:37;22.69;73.69
68026;SHT31;54819;48.030;14.710;2023-08-21T06:38:04;22.79;73.76
68026;SHT31;54819;48.030;14.710;2023-08-21T06:40:32;22.87;74.14
68026;SHT31;54819;48.030;14.710;2023-08-21T06:42:58;22.98;73.91
68026;SHT31;54819;48.030;14.710;2023-08-21T06:45:28;23.07;73.57
68026;SHT31;54819;48.030;14.710;2023-08-21T06:47:57;23.13;73.30
68026;SHT31;54819;48.030;14.710;2023-08-21T06:50:24;23.20;73.30
68026;SHT31;54819;48.030;14.710;2023-08-21T06:52:51;23.25;72.93
68026;SHT31;54819;48.030;14.710;2023-08-21T06:55:17;23.30;72.72
68026;SHT31;54819;48.030;14.710;2023-08-21T06:57:44;23.39;72.53
68026;SHT31;54819;48.030;14.710;2023-08-21T07:00:11;23.51;71.98
68026;SHT31;54819;48.030;14.710;2023-08-21T07:02:38;23.61;71.79
68026;SHT31;54819;48.030;14.710;2023-08-21T07:05:05;23.70;71.73
68026;SHT31;54819;48.030;14.710;2023-08-21T07:07:34;23.80;71.23
68026;SHT31;54819;48.030;14.710;2023-08-21T07:10:00;23.86;70.66
68026;SHT31;54819;48.030;14.710;2023-08-21T07:12:27;23.94;69.98
68026;SHT31;54819;48.030;14.710;2023-08-21T07:14:54;24.07;70.07
68026;SHT31;54819;48.030;14.710;2023-08-21T07:17:20;24.20;69.94
68026;SHT31;54819;48.030;14.710;2023-08-21T07:19:47;24.31;69.87
68026;SHT31;54819;48.030;14.710;2023-08-21T07:22:15;24.38;69.68
68026;SHT31;54819;48.030;14.710;2023-08-21T07:24:42;24.48;69.33
68026;SHT31;54819;48.030;14.710;2023-08-21T07:27:08;24.62;69.13
68026;SHT31;54819;48.030;14.710;2023-08-21T07:29:35;24.75;68.66
68026;SHT31;54819;48.030;14.710;2023-08-21T07:32:02;24.86;68.45
68026;SHT31;54819;48.030;14.710;2023-08-21T07:34:28;24.95;68.05
68026;SHT31;54819;48.030;14.710;2023-08-21T07:36:55;24.99;67.12
68026;SHT31;54819;48.030;14.710;2023-08-21T07:39:22;25.09;67.52
68026;SHT31;54819;48.030;14.710;2023-08-21T07:41:48;25.20;67.57
68026;SHT31;54819;48.030;14.710;2023-08-21T07:44:15;25.33;67.46
68026;SHT31;54819;48.030;14.710;2023-08-21T07:46:42;25.48;67.33
68026;SHT31;54819;48.030;14.710;2023-08-21T07:49:08;25.62;67.17
68026;SHT31;54819;48.030;14.710;2023-08-21T07:51:35;25.73;66.52
68026;SHT31;54819;48.030;14.710;2023-08-21T07:54:02;25.84;66.51
68026;SHT31;54819;48.030;14.710;2023-08-21T07:56:29;25.94;65.86
68026;SHT31;54819;48.030;14.710;2023-08-21T07:58:55;26.00;65.35
68026;SHT31;54819;48.030;14.710;2023-08-21T08:01:22;26.03;65.11
68026;SHT31;54819;48.030;14.710;2023-08-21T08:03:49;26.14;65.73
68026;SHT31;54819;48.030;14.710;2023-08-21T08:06:16;26.24;65.11
68026;SHT31;54819;48.030;14.710;2023-08-21T08:08:43;26.32;64.80
68026;SHT31;54819;48.030;14.710;2023-08-21T08:11:09;26.40;65.24
68026;SHT31;54819;48.030;14.710;2023-08-21T08:13:36;26.51;65.38
68026;SHT31;54819;48.030;14.710;2023-08-21T08:16:03;26.61;64.68
68026;SHT31;54819;48.030;14.710;2023-08-21T08:18:30;26.70;64.63
68026;SHT31;54819;48.030;14.710;2023-08-21T08:20:56;26.79;64.57
68026;SHT31;54819;48.030;14.710;2023-08-21T08:23:23;26.85;64.12
68026;SHT31;54819;48.030;14.710;2023-08-21T08:25:50;26.90;64.08
68026;SHT31;54819;48.030;14.710;2023-08-21T08:28:17;26.99;63.75
68026;SHT31;54819;48.030;14.710;2023-08-21T08:30:44;27.04;63.59
68026;SHT31;54819;48.030;14.710;2023-08-21T08:33:11;27.08;63.37
68026;SHT31;54819;48.030;14.710;2023-08-21T08:35:38;27.10;63.46
68026;SHT31;54819;48.030;14.710;2023-08-21T08:38:06;27.15;63.62
68026;SHT31;54819;48.030;14.710;2023-08-21T08:40:33;27.17;63.63
68026;SHT31;54819;48.030;14.710;2023-08-21T08:43:03;27.21;63.24
68026;SHT31;54819;48.030;14.710;2023-08-21T08:45:32;27.21;63.00
68026;SHT31;54819;48.030;14.710;2023-08-21T08:48:00;27.30;63.11
68026;SHT31;54819;48.030;14.710;2023-08-21T08:50:31;27.36;62.70
68026;SHT31;54819;48.030;14.710;2023-08-21T08:52:58;27.44;62.95
68026;SHT31;54819;48.030;14.710;2023-08-21T08:55:41;27.51;62.35
68026;SHT31;54819;48.030;14.710;2023-08-21T08:58:07;27.59;62.27
68026;SHT31;54819;48.030;14.710;2023-08-21T09:00:34;27.66;62.20
68026;SHT31;54819;48.030;14.710;2023-08-21T09:03:01;27.73;61.81
68026;SHT31;54819;48.030;14.710;2023-08-21T09:05:28;27.81;61.89
68026;SHT31;54819;48.030;14.710;2023-08-21T09:10:38;27.98;61.54
68026;SHT31;54819;48.030;14.710;2023-08-21T09:13:11;28.03;61.16
68026;SHT31;54819;48.030;14.710;2023-08-21T09:15:44;28.11;60.95
68026;SHT31;54819;48.030;14.710;2023-08-21T09:18:14;28.18;60.91
68026;SHT31;54819;48.030;14.710;2023-08-21T09:20:41;28.27;60.36
68026;SHT31;54819;48.030;14.710;2023-08-21T09:23:09;28.37;60.43
68026;SHT31;54819;48.030;14.710;2023-08-21T09:25:40;28.44;59.95
68026;SHT31;54819;48.030;14.710;2023-08-21T09:28:08;28.46;58.96
68026;SHT31;54819;48.030;14.710;2023-08-21T09:30:44;28.49;59.10
68026;SHT31;54819;48.030;14.710;2023-08-21T09:33:18;28.56;59.34
68026;SHT31;54819;48.030;14.710;2023-08-21T09:35:47;28.64;58.81
68026;SHT31;54819;48.030;14.710;2023-08-21T09:38:15;28.71;58.81
68026;SHT31;54819;48.030;14.710;2023-08-21T09:40:42;28.76;58.67
68026;SHT31;54819;48.030;14.710;2023-08-21T09:43:16;28.82;57.92
68026;SHT31;54819;48.030;14.710;2023-08-21T09:45:45;28.91;57.06
68026;SHT31;54819;48.030;14.710;2023-08-21T09:48:13;28.99;57.51
68026;SHT31;54819;48.030;14.710;2023-08-21T09:50:40;29.04;57.13
68026;SHT31;54819;48.030;14.710;2023-08-21T09:53:09;29.09;56.53
68026;SHT31;54819;48.030;14.710;2023-08-21T09:55:36;29.15;57.08
68026;SHT31;54819;48.030;14.710;2023-08-21T09:58:05;29.26;56.55
68026;SHT31;54819;48.030;14.710;2023-08-21T10:00:34;29.33;56.17
68026;SHT31;54819;48.030;14.710;2023-08-21T10:03:04;29.37;55.82
68026;SHT31;54819;48.030;14.710;2023-08-21T10:05:34;29.44;54.84
68026;SHT31;54819;48.030;14.710;2023-08-21T10:08:04;29.48;54.64
68026;SHT31;54819;48.030;14.710;2023-08-21T10:10:34;29.53;54.54
68026;SHT31;54819;48.030;14.710;2023-08-21T10:13:03;29.60;55.13
68026;SHT31;54819;48.030;14.710;2023-08-21T10:15:31;29.67;53.94
68026;SHT31;54819;48.030;14.710;2023-08-21T10:20:46;29.75;53.55
68026;SHT31;54819;48.030;14.710;2023-08-21T10:23:23;29.77;53.51
68026;SHT31;54819;48.030;14.710;2023-08-21T10:25:56;29.84;54.16
68026;SHT31;54819;48.030;14.710;2023-08-21T10:33:55;29.93;51.27
68026;SHT31;54819;48.030;14.710;2023-08-21T10:41:41;30.18;52.26
68026;SHT31;54819;48.030;14.710;2023-08-21T10:44:33;30.22;52.31
68026;SHT31;54819;48.030;14.710;2023-08-21T10:47:19;30.27;51.54
68026;SHT31;54819;48.030;14.710;2023-08-21T10:49:47;30.32;51.71
68026;SHT31;54819;48.030;14.710;2023-08-21T10:52:23;30.38;51.97
68026;SHT31;54819;48.030;14.710;2023-08-21T10:54:53;30.45;51.35
68026;SHT31;54819;48.030;14.710;2023-08-21T10:57:22;30.50;51.66
68026;SHT31;54819;48.030;14.710;2023-08-21T11:00:00;30.55;51.37
68026;SHT31;54819;48.030;14.710;2023-08-21T11:02:35;30.59;51.58
68026;SHT31;54819;48.030;14.710;2023-08-21T11:05:03;30.67;51.54
68026;SHT31;54819;48.030;14.710;2023-08-21T11:07:35;30.73;51.05
68026;SHT31;54819;48.030;14.710;2023-08-21T11:10:04;30.79;51.13
68026;SHT31;54819;48.030;14.710;2023-08-21T11:12:37;30.84;50.43
68026;SHT31;54819;48.030;14.710;2023-08-21T11:15:03;30.88;49.94
68026;SHT31;54819;48.030;14.710;2023-08-21T11:17:31;30.93;50.47
68026;SHT31;54819;48.030;14.710;2023-08-21T11:20:00;30.99;50.28
68026;SHT31;54819;48.030;14.710;2023-08-21T11:22:28;31.05;50.18
68026;SHT31;54819;48.030;14.710;2023-08-21T11:24:56;31.10;49.98
68026;SHT31;54819;48.030;14.710;2023-08-21T11:27:23;31.15;50.08
68026;SHT31;54819;48.030;14.710;2023-08-21T11:29:51;31.20;49.69
68026;SHT31;54819;48.030;14.710;2023-08-21T11:32:19;31.25;50.04
68026;SHT31;54819;48.030;14.710;2023-08-21T11:34:51;31.29;49.55
68026;SHT31;54819;48.030;14.710;2023-08-21T11:37:20;31.34;48.75
68026;SHT31;54819;48.030;14.710;2023-08-21T11:39:49;31.39;49.01
68026;SHT31;54819;48.030;14.710;2023-08-21T11:42:18;31.45;48.87
68026;SHT31;54819;48.030;14.710;2023-08-21T11:44:50;31.49;48.60
68026;SHT31;54819;48.030;14.710;2023-08-21T11:47:19;31.52;48.31
68026;SHT31;54819;48.030;14.710;2023-08-21T11:49:47;31.54;48.52
68026;SHT31;54819;48.030;14.710;2023-08-21T11:52:19;31.59;48.68
68026;SHT31;54819;48.030;14.710;2023-08-21T11:54:50;31.63;46.96
68026;SHT31;54819;48.030;14.710;2023-08-21T11:57:18;31.65;47.62
68026;SHT31;54819;48.030;14.710;2023-08-21T11:59:54;31.66;47.59
68026;SHT31;54819;48.030;14.710;2023-08-21T12:02:25;31.68;47.68
68026;SHT31;54819;48.030;14.710;2023-08-21T12:07:20;31.77;47.14
68026;SHT31;54819;48.030;14.710;2023-08-21T12:09:47;31.80;47.40
68026;SHT31;54819;48.030;14.710;2023-08-21T12:12:15;31.81;46.43
68026;SHT31;54819;48.030;14.710;2023-08-21T12:14:42;31.83;45.89
68026;SHT31;54819;48.030;14.710;2023-08-21T12:17:09;31.85;46.89
68026;SHT31;54819;48.030;14.710;2023-08-21T12:19:36;31.86;45.83
68026;SHT31;54819;48.030;14.710;2023-08-21T12:22:03;31.93;45.50
68026;SHT31;54819;48.030;14.710;2023-08-21T12:24:30;31.99;45.12
68026;SHT31;54819;48.030;14.710;2023-08-21T12:26:57;32.05;44.90
68026;SHT31;54819;48.030;14.710;2023-08-21T12:29:24;32.10;45.26
68026;SHT31;54819;48.030;14.710;2023-08-21T12:31:51;32.19;45.71
68026;SHT31;54819;48.030;14.710;2023-08-21T12:34:18;32.29;45.65
68026;SHT31;54819;48.030;14.710;2023-08-21T12:36:44;32.36;43.92
68026;SHT31;54819;48.030;14.710;2023-08-21T12:39:11;32.35;43.90
68026;SHT31;54819;48.030;14.710;2023-08-21T12:41:38;32.37;44.25
68026;SHT31;54819;48.030;14.710;2023-08-21T12:44:04;32.41;44.62
68026;SHT31;54819;48.030;14.710;2023-08-21T12:46:35;32.47;44.81
68026;SHT31;54819;48.030;14.710;2023-08-21T12:49:02;32.48;44.74
68026;SHT31;54819;48.030;14.710;2023-08-21T12:51:29;32.50;44.21
68026;SHT31;54819;48.030;14.710;2023-08-21T12:53:56;32.53;44.44
68026;SHT31;54819;48.030;14.710;2023-08-21T12:56:23;32.58;44.67
68026;SHT31;54819;48.030;14.710;2023-08-21T12:58:50;32.60;45.09
68026;SHT31;54819;48.030;14.710;2023-08-21T13:01:17;32.64;45.40
68026;SHT31;54819;48.030;14.710;2023-08-21T13:03:45;32.69;44.64
68026;SHT31;54819;48.030;14.710;2023-08-21T13:06:13;32.71;44.71
68026;SHT31;54819;48.030;14.710;2023-08-21T13:08:40;32.71;43.89
68026;SHT31;54819;48.030;14.710;2023-08-21T13:11:07;32.78;44.47
68026;SHT31;54819;48.030;14.710;2023-08-21T13:13:35;32.85;44.41
68026;SHT31;54819;48.030;14.710;2023-08-21T13:16:02;32.85;44.70
68026;SHT31;54819;48.030;14.710;2023-08-21T13:18:30;32.83;44.68
68026;SHT31;54819;48.030;14.710;2023-08-21T13:20:57;32.90;45.12
68026;SHT31;54819;48.030;14.710;2023-08-21T13:23:23;32.96;45.12
68026;SHT31;54819;48.030;14.710;2023-08-21T13:25:50;33.01;44.06
68026;SHT31;54819;48.030;14.710;2023-08-21T13:28:17;33.03;43.41
68026;SHT31;54819;48.030;14.710;2023-08-21T13:30:44;33.08;43.78
68026;SHT31;54819;48.030;14.710;2023-08-21T13:33:10;33.11;42.49
68026;SHT31;54819;48.030;14.710;2023-08-21T13:35:37;33.11;41.56
68026;SHT31;54819;48.030;14.710;2023-08-21T13:38:04;33.14;41.47
68026;SHT31;54819;48.030;14.710;2023-08-21T13:40:32;33.16;41.35
68026;SHT31;54819;48.030;14.710;2023-08-21T13:42:59;33.19;40.92
68026;SHT31;54819;48.030;14.710;2023-08-21T13:45:28;33.17;39.60
68026;SHT31;54819;48.030;14.710;2023-08-21T13:47:55;33.17;40.75
68026;SHT31;54819;48.030;14.710;2023-08-21T13:50:22;33.21;40.81
68026;SHT31;54819;48.030;14.710;2023-08-21T13:52:48;33.27;41.80
68026;SHT31;54819;48.030;14.710;2023-08-21T13:55:15;33.31;42.25
68026;SHT31;54819;48.030;14.710;2023-08-21T13:57:44;33.33;41.89
68026;SHT31;54819;48.030;14.710;2023-08-21T14:00:11;33.38;41.65
68026;SHT31;54819;48.030;14.710;2023-08-21T14:02:39;33.40;41.58
68026;SHT31;54819;48.030;14.710;2023-08-21T14:05:08;33.42;42.18
68026;SHT31;54819;48.030;14.710;2023-08-21T14:07:37;33.46;42.69
68026;SHT31;54819;48.030;14.710;2023-08-21T14:10:04;33.48;41.99
68026;SHT31;54819;48.030;14.710;2023-08-21T14:12:31;33.52;41.58
68026;SHT31;54819;48.030;14.710;2023-08-21T14:14:58;33.53;41.33
68026;SHT31;54819;48.030;14.710;2023-08-21T14:17:26;33.54;41.23
68026;SHT31;54819;48.030;14.710;2023-08-21T14:19:54;33.54;41.44
68026;SHT31;54819;48.030;14.710;2023-08-21T14:22:20;33.51;41.71
68026;SHT31;54819;48.030;14.710;2023-08-21T14:24:47;33.49;42.41
68026;SHT31;54819;48.030;14.710;2023-08-21T14:27:14;33.49;41.24
68026;SHT31;54819;48.030;14.710;2023-08-21T14:29:44;33.45;41.07
68026;SHT31;54819;48.030;14.710;2023-08-21T14:32:11;33.49;41.63
68026;SHT31;54819;48.030;14.710;2023-08-21T14:34:38;33.51;40.89
68026;SHT31;54819;48.030;14.710;2023-08-21T14:37:05;33.51;41.00
68026;SHT31;54819;48.030;14.710;2023-08-21T14:39:32;33.51;41.04
68026;SHT31;54819;48.030;14.710;2023-08-21T14:41:59;33.52;41.29
68026;SHT31;54819;48.030;14.710;2023-08-21T14:44:26;33.52;41.15
68026;SHT31;54819;48.030;14.710;2023-08-21T14:46:53;33.51;40.31
68026;SHT31;54819;48.030;14.710;2023-08-21T14:49:24;33.52;40.30
68026;SHT31;54819;48.030;14.710;2023-08-21T14:51:51;33.53;40.87
68026;SHT31;54819;48.030;14.710;2023-08-21T14:54:18;33.54;39.69
68026;SHT31;54819;48.030;14.710;2023-08-21T14:56:44;33.53;39.02
68026;SHT31;54819;48.030;14.710;2023-08-21T14:59:11;33.55;38.94
68026;SHT31;54819;48.030;14.710;2023-08-21T15:01:39;33.55;39.13
68026;SHT31;54819;48.030;14.710;2023-08-21T15:04:06;33.54;39.53
68026;SHT31;54819;48.030;14.710;2023-08-21T15:06:34;33.53;40.04
68026;SHT31;54819;48.030;14.710;2023-08-21T15:09:02;33.51;40.42
68026;SHT31;54819;48.030;14.710;2023-08-21T15:11:28;33.50;39.39
68026;SHT31;54819;48.030;14.710;2023-08-21T15:13:55;33.44;38.93
68026;SHT31;54819;48.030;14.710;2023-08-21T15:16:22;33.43;40.04
68026;SHT31;54819;48.030;14.710;2023-08-21T15:18:49;33.41;39.78
68026;SHT31;54819;48.030;14.710;2023-08-21T15:21:19;33.41;40.47
68026;SHT31;54819;48.030;14.710;2023-08-21T15:23:46;33.37;40.43
68026;SHT31;54819;48.030;14.710;2023-08-21T15:26:13;33.35;41.19
68026;SHT31;54819;48.030;14.710;2023-08-21T15:28:40;33.34;41.41
68026;SHT31;54819;48.030;14.710;2023-08-21T15:31:07;33.31;41.61
68026;SHT31;54819;48.030;14.710;2023-08-21T15:33:34;33.31;41.81
68026;SHT31;54819;48.030;14.710;2023-08-21T15:36:01;33.28;41.79
68026;SHT31;54819;48.030;14.710;2023-08-21T15:38:27;33.25;41.74